Startpagina
METAR-TAF:

METAR-TAF

Vliegvelden :

Shanghai-Pudong, China

Luchthaven Shanghai Pudong

breedte: 31-07N, lengte: 121-46E, hoogte: 4 m

Actueel weer

Dit bericht is 41 minuten geleden gemaakt, om 00:00 UTC
Wind 4 kt uit het zuidwesten
Temperatuur 33°C
Vochtigheid 67%
Druk 1004 hPa
Zicht 10 km of meer
geen wolken onder 1500 m en geen cumulonimbus

METAR: ZSPD 250000Z 22002MPS CAVOK 33/26 Q1004 NOSIG

Tijdstip: 08:41 (00:41 UTC)

Verwachting

Dit bericht is 3 uur en het 30 minuten geleden gemaakt, om 21:11 UTC
Verwachting geldig van 25 om 00 UTC tot 25 om 24 UTC
Wind 8 kt uit het zuiden
Zicht: 6000 m
Verspreide wolken op 2000 ft

TAF: ZSPD 242111Z 2500/2524 17004MPS 6000 SCT020 TX39/2506Z TN27/2521Z

Waarnemingen en weersverwachtingen van meer dan 4000 vliegvelden (METAR en TAF).

De beschikbare stations zijn de gele en rode punten op de kaart.

Ga met uw muis naar het station om de naam te zien.

Klik dan om waarnemingen en weersverwachtingen te zien.

kaart wijzigen: klik op de groene knoppen met een zwart kruis om in te zoomen, op de groene knop met een streepje om uit te zoomen of op de groene pijlen voor aangrenzende kaarten.


METAR-TAF: